Time;durP1;ratioP1;P1;durP2;ratioP2;P2;SDS_P1;SDS_P2;PMS_P1;PMS_P2;Temp;Humidity;BMP_temperature;BMP_pressure;BME280_temperature;BME280_humidity;BME280_pressure;Samples;Min_cycle;Max_cycle;Signal;HPM_P1;HPM_P2
2022/03/15 00:01:35;;;;;;;31.50;22.50;;;;;;;1.99;58.02;102543.53;5015139;28;20371;-74
2022/03/15 00:11:05;;;;;;;27.40;18.30;;;;;;;2.10;57.67;102523.53;5015202;28;20069;-75
2022/03/15 00:13:43;;;;;;;25.77;20.92;;;;;;;2.16;57.35;102523.97;5014625;28;20044;-74
2022/03/15 00:16:09;;;;;;;30.15;18.25;;;;;;;2.05;57.18;102506.78;5013142;28;20050;-74
2022/03/15 00:18:35;;;;;;;29.35;22.42;;;;;;;1.99;58.01;102509.88;5013070;28;20076;-74
2022/03/15 00:21:04;;;;;;;29.23;23.60;;;;;;;2.26;57.41;102516.03;5014052;28;20066;-75
2022/03/15 00:23:31;;;;;;;26.23;20.80;;;;;;;1.75;58.20;102513.34;5013440;28;20525;-75
2022/03/15 00:25:57;;;;;;;23.02;17.38;;;;;;;2.15;57.78;102510.91;5013493;28;20040;-73
2022/03/15 00:28:23;;;;;;;23.88;14.90;;;;;;;2.20;57.46;102510.44;5011285;28;20041;-74
2022/03/15 00:30:49;;;;;;;29.55;20.98;;;;;;;1.84;58.27;102509.69;5012590;28;20045;-74
2022/03/15 00:33:15;;;;;;;28.58;22.77;;;;;;;1.79;57.99;102503.31;5014101;28;20042;-74
2022/03/15 00:35:41;;;;;;;26.65;22.48;;;;;;;2.04;57.85;102505.00;5010904;28;20045;-75
2022/03/15 00:38:07;;;;;;;28.00;22.02;;;;;;;1.80;58.41;102502.53;5013228;28;20030;-74
2022/03/15 00:43:54;;;;;;;25.17;17.40;;;;;;;1.82;57.81;102497.44;5032891;28;20472;-74
2022/03/15 00:46:49;;;;;;;23.08;15.02;;;;;;;1.94;57.94;102506.03;5031290;28;20021;-75
2022/03/15 00:53:09;;;;;;;28.50;20.58;;;;;;;1.90;57.40;102496.31;5011124;28;20049;-75
2022/03/15 00:58:56;;;;;;;30.52;22.80;;;;;;;1.92;57.11;102489.53;5013971;28;20041;-75
2022/03/15 01:01:22;;;;;;;31.20;22.67;;;;;;;1.94;57.15;102495.69;5012237;28;20393;-75
2022/03/15 01:03:47;;;;;;;19.75;14.23;;;;;;;1.78;57.51;102477.31;5009385;28;20030;-74
2022/03/15 01:12:52;;;;;;;24.77;22.13;;;;;;;1.77;57.72;102491.06;5013503;28;20044;-75
2022/03/15 01:15:17;;;;;;;28.77;22.67;;;;;;;1.77;57.27;102481.59;5012287;28;20370;-75
2022/03/15 01:17:43;;;;;;;21.40;14.63;;;;;;;1.60;58.79;102493.38;5013398;28;20041;-75
2022/03/15 01:20:09;;;;;;;28.27;18.38;;;;;;;1.54;58.17;102476.53;5013097;28;20029;-75
2022/03/15 01:22:46;;;;;;;30.52;23.48;;;;;;;1.59;58.17;102490.66;5013121;28;20389;-75
2022/03/15 01:25:12;;;;;;;23.30;18.17;;;;;;;1.87;57.45;102488.31;5011777;28;20095;-74
2022/03/15 01:27:37;;;;;;;31.13;23.35;;;;;;;1.56;58.01;102472.34;5013144;28;20049;-74
2022/03/15 01:30:04;;;;;;;36.75;24.08;;;;;;;1.61;57.83;102481.31;5012915;28;20038;-74
2022/03/15 01:32:29;;;;;;;29.83;22.92;;;;;;;1.57;58.48;102477.66;5013018;28;20033;-74
2022/03/15 01:34:55;;;;;;;25.27;15.52;;;;;;;1.53;58.30;102482.50;5011628;28;20034;-74
2022/03/15 01:40:42;;;;;;;34.22;21.75;;;;;;;1.65;57.48;102479.06;5013958;28;20374;-74
2022/03/15 01:46:51;;;;;;;28.92;22.00;;;;;;;1.79;57.39;102474.84;5013887;28;20045;-74
2022/03/15 01:49:16;;;;;;;22.42;15.20;;;;;;;1.79;56.99;102481.72;4998998;28;20058;-74
2022/03/15 01:51:43;;;;;;;33.88;23.02;;;;;;;1.58;57.67;102483.72;4996001;28;20128;-75
2022/03/15 01:54:10;;;;;;;25.75;17.58;;;;;;;1.64;57.50;102482.47;5012851;28;20033;-74
2022/03/15 01:56:41;;;;;;;31.45;15.45;;;;;;;1.73;57.11;102468.34;5012879;28;20061;-75
2022/03/15 01:59:12;;;;;;;33.08;22.50;;;;;;;1.72;57.66;102488.16;5011930;28;20067;-75
2022/03/15 02:01:39;;;;;;;24.45;15.68;;;;;;;1.79;57.18;102480.03;5012937;28;20108;-75
2022/03/15 02:04:05;;;;;;;26.45;20.23;;;;;;;1.83;56.90;102482.03;5011204;28;20474;-74
2022/03/15 02:06:34;;;;;;;35.65;22.30;;;;;;;1.99;56.59;102486.56;5010675;28;20042;-74
2022/03/15 02:12:21;;;;;;;30.98;23.55;;;;;;;1.77;56.81;102483.28;5016986;28;20088;-73
2022/03/15 02:14:46;;;;;;;21.08;15.27;;;;;;;1.86;57.06;102495.19;5014354;28;20454;-74
2022/03/15 02:20:34;;;;;;;27.50;16.40;;;;;;;1.74;57.48;102491.75;5016287;28;20076;-74
2022/03/15 02:22:59;;;;;;;29.65;16.73;;;;;;;1.81;57.44;102501.72;5014471;28;20022;-74
2022/03/15 02:25:25;;;;;;;26.17;20.85;;;;;;;1.89;56.81;102484.13;5015106;28;20211;-74
2022/03/15 02:27:51;;;;;;;30.95;22.58;;;;;;;1.80;56.81;102491.25;5016337;28;20493;-74
2022/03/15 02:30:17;;;;;;;31.50;22.23;;;;;;;1.69;57.10;102485.38;5013171;28;20084;-73
2022/03/15 02:32:44;;;;;;;18.85;15.63;;;;;;;1.53;57.13;102496.31;5005914;28;20481;-75
2022/03/15 02:35:10;;;;;;;26.35;15.10;;;;;;;1.87;56.77;102497.00;4996742;28;20034;-75
2022/03/15 02:37:54;;;;;;;31.55;23.13;;;;;;;1.98;56.21;102502.00;4997495;28;20460;-74
2022/03/15 02:40:19;;;;;;;27.65;15.88;;;;;;;1.96;56.03;102501.00;4993449;28;20038;-74
2022/03/15 02:42:45;;;;;;;27.02;23.48;;;;;;;1.69;56.67;102504.38;5017046;28;20081;-74
2022/03/15 02:45:10;;;;;;;29.48;21.30;;;;;;;1.97;56.22;102500.22;5016026;28;20386;-74
2022/03/15 02:47:52;;;;;;;22.13;15.27;;;;;;;1.84;56.43;102501.03;5013364;28;20030;-74
2022/03/15 02:50:19;;;;;;;21.48;15.82;;;;;;;1.69;56.93;102514.72;5014970;28;20034;-73
2022/03/15 02:52:44;;;;;;;28.48;23.77;;;;;;;1.81;56.65;102517.25;5016229;28;20021;-74
2022/03/15 02:58:31;;;;;;;32.30;17.70;;;;;;;1.55;56.76;102499.91;5013635;28;20076;-74
2022/03/15 03:04:19;;;;;;;22.73;17.67;;;;;;;1.70;56.72;102507.84;5015625;28;20100;-73
2022/03/15 03:06:44;;;;;;;33.83;16.70;;;;;;;1.87;56.82;102486.63;5011263;28;20050;-73
2022/03/15 03:09:14;;;;;;;32.90;24.75;;;;;;;1.68;57.49;102502.56;5013845;28;20042;-73
2022/03/15 03:11:39;;;;;;;23.70;18.10;;;;;;;1.61;57.27;102494.25;5015806;28;20129;-75
2022/03/15 03:14:06;;;;;;;26.20;16.60;;;;;;;1.70;56.92;102489.72;5006272;28;20107;-75
2022/03/15 03:16:32;;;;;;;34.05;26.15;;;;;;;1.67;57.07;102461.97;4994769;28;20026;-75
2022/03/15 03:19:00;;;;;;;39.05;25.73;;;;;;;1.90;56.79;102471.31;4995547;28;20052;-75
2022/03/15 03:21:27;;;;;;;27.25;16.67;;;;;;;1.84;56.74;102444.09;4999586;28;20084;-75
2022/03/15 03:23:54;;;;;;;36.05;17.00;;;;;;;1.74;57.23;102442.59;5011823;28;20133;-75
2022/03/15 03:26:21;;;;;;;26.75;18.02;;;;;;;1.66;57.54;102436.88;5014984;28;20106;-75
2022/03/15 03:29:09;;;;;;;38.97;25.02;;;;;;;1.61;57.51;102448.59;5016084;28;20076;-75
2022/03/15 03:31:37;;;;;;;29.95;22.55;;;;;;;1.45;58.12;102441.47;5006549;28;20045;-73
2022/03/15 03:34:04;;;;;;;33.42;21.88;;;;;;;1.51;58.28;102446.16;5011840;28;20072;-75
2022/03/15 03:39:51;;;;;;;25.52;19.23;;;;;;;1.53;57.98;102441.09;5013413;28;20100;-74
2022/03/15 03:42:18;;;;;;;41.25;25.02;;;;;;;1.47;58.41;102438.97;5015130;28;20458;-74
2022/03/15 03:48:07;;;;;;;29.42;24.70;;;;;;;1.55;59.32;102448.19;5002434;28;20061;-75
2022/03/15 03:50:34;;;;;;;25.77;19.00;;;;;;;1.54;59.01;102445.47;5014759;28;20044;-74
2022/03/15 03:53:00;;;;;;;42.33;26.42;;;;;;;1.64;59.25;102450.50;5014980;28;20025;-74
2022/03/15 04:02:37;;;;;;;34.85;19.27;;;;;;;1.47;60.19;102445.06;5015152;28;20037;-74
2022/03/15 04:05:03;;;;;;;30.08;21.20;;;;;;;1.37;61.13;102431.38;5012126;28;20037;-74
2022/03/15 04:07:29;;;;;;;39.10;26.90;;;;;;;1.39;60.18;102422.94;5014788;28;20026;-74
2022/03/15 04:09:55;;;;;;;43.75;27.17;;;;;;;1.30;60.59;102431.75;5014048;28;20485;-74
2022/03/15 04:12:40;;;;;;;42.17;28.67;;;;;;;1.20;60.21;102445.72;5007913;28;20064;-74
2022/03/15 04:15:06;;;;;;;27.63;20.50;;;;;;;1.11;60.37;102434.72;4994450;28;20538;-73
2022/03/15 04:18:20;;;;;;;48.35;29.08;;;;;;;1.34;60.53;102442.41;4994601;28;20118;-74
2022/03/15 04:20:46;;;;;;;28.52;18.70;;;;;;;1.23;60.54;102451.97;4991534;28;20037;-73
2022/03/15 04:23:12;;;;;;;30.17;19.35;;;;;;;1.25;60.53;102463.34;4994225;28;20367;-74
2022/03/15 04:25:38;;;;;;;38.03;27.50;;;;;;;1.23;59.74;102456.25;4994704;28;20022;-73
2022/03/15 04:31:59;;;;;;;35.80;27.00;;;;;;;1.31;60.10;102473.22;5034139;28;20091;-73
2022/03/15 04:37:47;;;;;;;41.40;28.70;;;;;;;1.13;60.57;102452.13;5034234;28;20037;-73
2022/03/15 04:50:17;;;;;;;37.95;28.10;;;;;;;1.40;60.38;102462.63;5012266;28;20037;-74
2022/03/15 04:53:10;;;;;;;49.60;31.75;;;;;;;1.34;60.01;102470.84;5014526;28;20034;-74
2022/03/15 04:55:36;;;;;;;35.65;21.08;;;;;;;1.50;59.88;102465.06;4992612;28;20046;-76
2022/03/15 04:58:01;;;;;;;42.65;32.38;;;;;;;1.31;60.33;102456.78;4994105;28;20085;-74
2022/03/15 05:04:39;;;;;;;35.67;22.42;;;;;;;1.39;59.96;102460.84;5011466;28;20061;-74
2022/03/15 05:13:49;;;;;;;36.72;30.38;;;;;;;1.32;60.17;102456.91;5014187;28;20080;-74
2022/03/15 05:16:23;;;;;;;34.50;22.85;;;;;;;1.19;60.13;102462.88;5012617;28;20092;-75
2022/03/15 05:18:53;;;;;;;33.83;22.20;;;;;;;1.32;59.97;102463.78;5004323;28;20145;-75
2022/03/15 05:21:20;;;;;;;46.65;31.23;;;;;;;1.48;60.35;102474.41;5023965;28;20057;-74
2022/03/15 05:24:40;;;;;;;41.50;31.60;;;;;;;1.45;59.53;102481.94;5021377;28;20045;-74
2022/03/15 05:27:06;;;;;;;38.47;22.83;;;;;;;1.62;59.30;102484.03;4992637;28;20069;-75
2022/03/15 05:29:31;;;;;;;31.58;21.67;;;;;;;1.80;58.72;102481.84;5012113;28;20046;-75
2022/03/15 05:31:57;;;;;;;43.35;30.27;;;;;;;1.58;59.51;102476.84;5013118;28;20022;-74
2022/03/15 05:34:22;;;;;;;51.22;32.92;;;;;;;1.63;58.36;102474.56;4999372;28;20022;-83
2022/03/15 05:36:48;;;;;;;40.88;30.25;;;;;;;1.71;59.17;102482.84;5005050;28;20490;-75
2022/03/15 05:39:14;;;;;;;55.40;24.63;;;;;;;1.53;58.76;102467.88;5021834;28;20038;-74
2022/03/15 05:41:41;;;;;;;46.08;32.35;;;;;;;1.79;58.96;102463.59;5009108;28;20450;-73
2022/03/15 05:44:38;;;;;;;41.67;24.55;;;;;;;1.87;58.57;102472.78;5011705;28;20025;-74
2022/03/15 05:47:03;;;;;;;45.70;26.90;;;;;;;1.87;58.50;102453.00;5018259;28;20029;-74
2022/03/15 05:49:29;;;;;;;53.50;34.70;;;;;;;1.94;59.16;102472.41;5008676;28;20045;-75
2022/03/15 05:51:54;;;;;;;49.70;31.88;;;;;;;2.02;58.39;102473.84;4996406;28;20046;-75
2022/03/15 05:55:10;;;;;;;50.97;37.42;;;;;;;2.13;57.89;102484.94;5011197;28;20050;-74
2022/03/15 05:57:36;;;;;;;31.70;24.42;;;;;;;2.18;57.54;102474.84;4992447;28;20115;-75
2022/03/15 06:00:01;;;;;;;37.53;25.38;;;;;;;2.37;57.14;102470.13;4999440;28;20037;-74
2022/03/15 06:02:27;;;;;;;45.88;34.38;;;;;;;2.47;57.09;102485.47;4996821;28;20117;-75
2022/03/15 06:08:04;;;;;;;44.83;31.88;;;;;;;2.46;56.30;102475.03;5012789;28;20046;-75
2022/03/15 06:10:30;;;;;;;46.88;32.58;;;;;;;2.80;55.92;102485.00;5008553;28;20377;-75
2022/03/15 06:12:57;;;;;;;52.63;36.08;;;;;;;3.08;55.43;102495.47;5001944;28;20486;-74
2022/03/15 06:15:23;;;;;;;54.95;34.40;;;;;;;3.00;55.46;102476.81;4992449;28;20058;-75
2022/03/15 06:17:57;;;;;;;50.70;35.85;;;;;;;3.32;54.62;102489.22;4994238;28;20428;-75
2022/03/15 06:20:25;;;;;;;51.80;34.78;;;;;;;3.46;54.33;102487.50;4995654;28;20073;-75
2022/03/15 06:22:50;;;;;;;48.60;33.90;;;;;;;3.58;54.44;102492.53;4992716;28;20045;-75
2022/03/15 06:25:16;;;;;;;54.60;33.28;;;;;;;3.73;53.94;102511.69;5006805;28;20054;-75
2022/03/15 06:27:43;;;;;;;46.00;33.67;;;;;;;3.75;53.01;102504.88;5004086;28;20046;-75
2022/03/15 06:30:10;;;;;;;44.28;32.78;;;;;;;3.66;54.05;102514.69;5010296;28;20499;-74
2022/03/15 06:32:35;;;;;;;46.15;36.72;;;;;;;3.31;55.68;102517.69;5006114;28;20042;-75
2022/03/15 06:35:05;;;;;;;52.40;35.72;;;;;;;3.44;55.56;102514.16;5001218;28;20032;-74
2022/03/15 06:37:31;;;;;;;132.95;41.58;;;;;;;3.44;55.60;102527.13;5012363;28;20057;-74
2022/03/15 06:39:57;;;;;;;47.80;35.35;;;;;;;3.66;54.37;102514.69;5012398;28;20492;-75
2022/03/15 06:42:22;;;;;;;95.25;38.88;;;;;;;3.35;55.42;102497.22;5011035;28;20042;-74
2022/03/15 06:44:48;;;;;;;48.13;34.08;;;;;;;3.75;55.22;102509.19;4990838;28;20523;-76
2022/03/15 06:47:13;;;;;;;60.55;37.03;;;;;;;4.01;54.50;102516.84;5006014;28;20018;-75
2022/03/15 06:49:39;;;;;;;64.13;36.92;;;;;;;3.64;55.41;102516.28;5002937;28;20112;-75
2022/03/15 06:52:56;;;;;;;103.97;39.75;;;;;;;3.65;54.36;102512.88;5008196;28;20041;-75
2022/03/15 06:55:22;;;;;;;55.58;36.92;;;;;;;3.62;54.63;102517.00;4993015;28;20477;-75
2022/03/15 06:57:48;;;;;;;66.70;39.25;;;;;;;4.00;53.91;102509.88;5010034;28;20045;-75
2022/03/15 07:00:15;;;;;;;46.92;34.63;;;;;;;4.04;53.05;102505.75;5020286;28;20046;-75
2022/03/15 07:02:40;;;;;;;56.55;39.13;;;;;;;4.29;52.62;102509.84;5000318;28;20137;-74
2022/03/15 07:05:06;;;;;;;71.15;37.78;;;;;;;4.73;51.62;102509.84;5007544;28;20101;-74
2022/03/15 07:07:32;;;;;;;55.65;40.53;;;;;;;4.85;51.35;102497.53;5007817;28;20037;-75
2022/03/15 07:09:57;;;;;;;57.92;39.38;;;;;;;4.67;51.37;102514.66;4992617;28;20401;-75
2022/03/15 07:12:24;;;;;;;52.97;39.03;;;;;;;5.12;51.47;102501.59;5011308;28;20072;-74
2022/03/15 07:14:50;;;;;;;56.38;37.45;;;;;;;5.15;51.47;102502.66;5011704;28;20042;-74
2022/03/15 07:17:16;;;;;;;74.65;40.67;;;;;;;5.46;49.79;102507.84;5010092;28;20467;-74
2022/03/15 07:19:42;;;;;;;80.70;40.58;;;;;;;5.41;49.81;102498.00;5008114;28;20073;-74
2022/03/15 07:22:07;;;;;;;49.78;33.78;;;;;;;5.03;48.53;102500.28;5009858;28;20054;-75
2022/03/15 07:24:35;;;;;;;69.07;38.42;;;;;;;5.14;50.49;102511.28;5001710;28;20038;-75
2022/03/15 07:27:01;;;;;;;50.53;36.80;;;;;;;5.20;49.41;102509.03;5009803;28;20034;-75
2022/03/15 07:29:28;;;;;;;55.05;37.53;;;;;;;5.56;48.17;102509.25;5011101;28;20061;-74
2022/03/15 07:31:54;;;;;;;58.33;40.97;;;;;;;5.68;48.30;102509.91;5020425;28;20034;-73
2022/03/15 07:34:19;;;;;;;50.00;39.60;;;;;;;5.72;48.45;102505.75;5031223;28;20156;-74
2022/03/15 07:36:45;;;;;;;64.38;41.83;;;;;;;5.80;48.12;102519.19;5025078;28;20038;-74
2022/03/15 07:39:11;;;;;;;55.15;38.53;;;;;;;5.81;48.05;102508.84;5009867;28;20053;-74
2022/03/15 07:41:38;;;;;;;49.60;35.63;;;;;;;5.67;47.55;102496.81;5008862;28;20389;-74
2022/03/15 07:44:05;;;;;;;41.63;34.35;;;;;;;5.97;47.31;102512.28;5004837;28;20130;-75
2022/03/15 07:46:31;;;;;;;45.63;35.22;;;;;;;6.15;47.73;102514.97;5002784;28;20035;-74
2022/03/15 07:48:56;;;;;;;52.03;35.67;;;;;;;6.25;47.98;102512.00;5008667;28;20561;-75
2022/03/15 07:51:22;;;;;;;53.45;34.92;;;;;;;6.22;46.29;102502.34;5005508;28;20041;-74
2022/03/15 07:53:47;;;;;;;44.58;33.95;;;;;;;6.19;46.66;102507.41;5007850;28;20042;-75
2022/03/15 07:56:13;;;;;;;68.93;35.92;;;;;;;6.20;47.08;102511.78;5008112;28;20401;-75
2022/03/15 07:58:38;;;;;;;60.63;32.92;;;;;;;6.28;46.22;102518.31;5011907;28;20037;-75
2022/03/15 08:01:04;;;;;;;45.45;31.85;;;;;;;6.66;45.40;102516.72;5010482;28;20037;-74
2022/03/15 08:04:20;;;;;;;37.10;29.20;;;;;;;6.59;45.41;102517.25;5008780;28;20072;-74
2022/03/15 08:06:47;;;;;;;39.33;31.13;;;;;;;6.63;45.25;102500.06;5007495;28;20077;-74
2022/03/15 08:09:14;;;;;;;43.75;29.27;;;;;;;6.71;44.25;102501.31;5010346;28;20084;-74
2022/03/15 08:11:41;;;;;;;47.38;31.30;;;;;;;6.67;44.94;102509.78;4999765;28;20069;-73
2022/03/15 08:14:08;;;;;;;38.75;32.38;;;;;;;7.06;44.28;102508.25;5010164;28;20036;-73
2022/03/15 08:16:34;;;;;;;46.67;31.88;;;;;;;7.07;44.07;102507.44;5007292;28;20036;-74
2022/03/15 08:18:59;;;;;;;44.40;29.15;;;;;;;7.34;43.07;102489.56;4999677;28;20113;-74
2022/03/15 08:22:11;;;;;;;52.45;30.08;;;;;;;7.51;44.35;102503.41;5008997;28;20111;-74
2022/03/15 08:25:16;;;;;;;44.50;29.50;;;;;;;7.14;43.10;102498.16;4999358;28;20047;-74
2022/03/15 08:27:41;;;;;;;37.65;27.67;;;;;;;7.45;43.08;102486.56;4993812;28;20099;-73
2022/03/15 08:30:07;;;;;;;41.22;33.22;;;;;;;7.88;42.45;102499.84;5012367;28;20045;-74
2022/03/15 08:32:33;;;;;;;52.83;30.45;;;;;;;7.85;42.65;102486.66;5010651;28;20042;-74
2022/03/15 08:35:34;;;;;;;36.30;30.63;;;;;;;8.11;42.31;102502.59;5010607;28;20501;-73
2022/03/15 08:37:59;;;;;;;35.35;29.98;;;;;;;8.37;41.48;102496.75;5011928;28;20025;-73
2022/03/15 08:40:25;;;;;;;53.65;30.50;;;;;;;7.99;41.38;102489.88;5012665;28;20421;-73
2022/03/15 08:42:50;;;;;;;53.65;32.65;;;;;;;8.32;41.29;102486.94;4994046;28;20046;-73
2022/03/15 08:45:16;;;;;;;35.90;29.60;;;;;;;8.72;41.52;102486.03;4991340;28;20402;-74
2022/03/15 08:47:42;;;;;;;37.40;29.83;;;;;;;8.61;40.90;102467.25;4990232;28;20433;-74
2022/03/15 08:50:09;;;;;;;70.00;29.02;;;;;;;8.61;40.37;102462.91;5007916;28;20061;-75
2022/03/15 08:52:35;;;;;;;42.97;29.80;;;;;;;8.60;40.83;102462.88;5010969;28;20422;-73
2022/03/15 08:55:02;;;;;;;41.70;29.83;;;;;;;8.70;40.63;102472.88;5011135;28;20042;-74
2022/03/15 08:57:28;;;;;;;49.15;30.52;;;;;;;8.92;39.42;102478.97;5025988;28;20084;-74
2022/03/15 08:59:53;;;;;;;50.47;28.55;;;;;;;8.73;38.92;102464.25;5013431;28;20478;-75
2022/03/15 09:02:19;;;;;;;38.45;27.17;;;;;;;8.69;39.45;102457.13;5011445;28;20041;-74
2022/03/15 09:04:44;;;;;;;37.67;26.05;;;;;;;8.96;39.58;102455.59;5010724;28;20033;-74
2022/03/15 09:07:10;;;;;;;40.33;27.65;;;;;;;8.88;40.08;102467.50;5011156;28;20046;-74
2022/03/15 09:09:36;;;;;;;33.97;24.85;;;;;;;8.56;39.47;102474.03;5011875;28;20160;-74
2022/03/15 09:12:02;;;;;;;36.65;26.17;;;;;;;8.77;39.18;102463.53;5012132;28;20072;-74
2022/03/15 09:14:28;;;;;;;44.33;28.48;;;;;;;9.12;39.44;102469.28;5008890;28;20038;-73
2022/03/15 09:16:54;;;;;;;32.90;26.67;;;;;;;9.01;39.69;102468.88;5010162;28;20356;-75
2022/03/15 09:19:19;;;;;;;44.05;26.92;;;;;;;9.10;39.27;102464.00;5009558;28;20060;-75
2022/03/15 09:21:45;;;;;;;38.40;27.05;;;;;;;9.19;38.38;102455.59;5022128;28;20389;-72
2022/03/15 09:24:11;;;;;;;37.10;24.77;;;;;;;9.27;38.69;102446.28;5028573;28;20099;-74
2022/03/15 09:26:37;;;;;;;33.50;26.27;;;;;;;9.34;38.19;102447.44;5028111;28;20176;-75
2022/03/15 09:29:03;;;;;;;31.42;24.48;;;;;;;9.43;37.53;102453.00;5022197;28;20033;-75
2022/03/15 09:32:11;;;;;;;45.83;26.98;;;;;;;9.67;37.32;102447.81;5008189;28;20034;-74
2022/03/15 09:34:37;;;;;;;35.00;26.90;;;;;;;9.75;37.72;102455.94;4999589;28;20054;-74
2022/03/15 09:37:05;;;;;;;41.83;25.75;;;;;;;9.76;37.16;102452.47;5007924;28;20474;-70
2022/03/15 09:39:31;;;;;;;36.60;26.38;;;;;;;9.99;37.56;102448.94;5001862;28;20132;-73
2022/03/15 09:42:46;;;;;;;32.50;25.77;;;;;;;10.00;36.66;102447.25;5007425;28;20050;-74
2022/03/15 09:45:11;;;;;;;43.78;23.73;;;;;;;10.11;37.51;102433.66;5009117;28;20470;-75
2022/03/15 09:47:40;;;;;;;49.38;23.60;;;;;;;10.13;36.83;102425.81;5015095;28;20056;-75
2022/03/15 09:50:06;;;;;;;36.70;23.13;;;;;;;10.05;36.23;102422.94;5019253;28;20466;-74
2022/03/15 09:53:12;;;;;;;34.40;22.38;;;;;;;10.11;35.69;102425.78;5010284;28;20308;-74
2022/03/15 09:58:48;;;;;;;40.03;23.60;;;;;;;10.57;34.60;102421.19;5008582;28;20091;-79
2022/03/15 10:01:17;;;;;;;31.75;22.17;;;;;;;10.73;35.09;102417.34;5001477;28;20038;-75
2022/03/15 10:03:43;;;;;;;42.75;23.73;;;;;;;10.80;34.40;102408.81;5001111;28;20504;-76
2022/03/15 10:06:09;;;;;;;41.15;23.95;;;;;;;10.95;34.92;102392.63;5007673;28;20038;-75
2022/03/15 10:08:35;;;;;;;37.28;22.85;;;;;;;10.96;35.71;102387.44;5008478;28;20481;-75
2022/03/15 10:11:01;;;;;;;31.38;21.58;;;;;;;11.12;35.22;102396.66;5008767;28;20040;-78
2022/03/15 10:13:26;;;;;;;29.45;21.67;;;;;;;11.19;33.77;102384.56;5007937;28;20030;-79
2022/03/15 10:16:00;;;;;;;43.13;22.10;;;;;;;11.35;32.84;102381.53;5008704;28;20046;-81
2022/03/15 10:18:26;;;;;;;28.75;20.85;;;;;;;10.97;32.99;102367.28;5009900;28;20041;-82
2022/03/15 10:20:52;;;;;;;30.77;19.77;;;;;;;11.21;34.07;102369.75;5007567;28;20038;-81
2022/03/15 10:23:19;;;;;;;38.83;22.85;;;;;;;10.99;32.53;102350.72;5009207;28;20385;-83
2022/03/15 10:25:50;;;;;;;31.48;22.40;;;;;;;11.41;32.05;102360.69;4988486;28;20046;-82
2022/03/15 10:28:17;;;;;;;41.92;21.65;;;;;;;11.42;31.66;102358.94;5000577;28;20132;-79
2022/03/15 10:30:44;;;;;;;33.15;20.35;;;;;;;11.91;31.43;102338.38;5009728;28;20054;-81
2022/03/15 10:33:10;;;;;;;26.98;20.17;;;;;;;12.20;31.38;102331.22;5004124;28;20513;-75
2022/03/15 10:36:22;;;;;;;25.85;19.45;;;;;;;12.41;30.90;102350.16;5002049;28;20084;-75
2022/03/15 10:38:49;;;;;;;26.15;21.40;;;;;;;12.17;30.34;102333.75;5001247;28;20034;-75
2022/03/15 10:41:15;;;;;;;29.70;20.77;;;;;;;12.08;30.25;102330.91;5006378;28;20026;-76
2022/03/15 10:43:41;;;;;;;26.73;20.02;;;;;;;12.22;31.47;102318.97;5012979;28;20030;-75
2022/03/15 10:46:10;;;;;;;34.80;21.65;;;;;;;12.60;30.82;102327.78;5008711;28;20172;-74
2022/03/15 10:48:36;;;;;;;33.47;22.05;;;;;;;12.44;30.58;102316.00;5002109;28;20100;-75
2022/03/15 10:51:13;;;;;;;22.85;19.45;;;;;;;12.41;30.52;102315.94;5012087;28;20042;-74
2022/03/15 10:53:42;;;;;;;30.08;18.45;;;;;;;12.25;29.81;102316.44;5012044;28;20049;-75
2022/03/15 10:56:28;;;;;;;21.15;17.42;;;;;;;12.53;29.89;102301.28;5013384;28;20069;-75
2022/03/15 10:59:05;;;;;;;22.55;17.02;;;;;;;12.68;30.20;102291.06;4991678;28;20136;-75
2022/03/15 11:01:41;;;;;;;29.10;19.05;;;;;;;12.43;28.78;102290.53;5000235;28;20046;-74
2022/03/15 11:04:11;;;;;;;34.25;18.63;;;;;;;12.65;29.43;102291.00;5003344;28;20160;-74
2022/03/15 11:06:48;;;;;;;23.80;19.35;;;;;;;13.03;28.87;102288.28;5012087;28;20502;-74
2022/03/15 11:09:31;;;;;;;37.65;17.60;;;;;;;12.51;29.13;102292.44;5009595;28;20137;-74
2022/03/15 11:12:06;;;;;;;28.63;19.55;;;;;;;13.26;30.14;102286.09;5011677;28;20057;-75
2022/03/15 11:14:47;;;;;;;34.58;18.38;;;;;;;13.46;28.90;102289.13;5015716;28;20140;-75
2022/03/15 11:17:18;;;;;;;26.88;17.55;;;;;;;13.30;28.88;102283.56;5031726;28;20030;-75
2022/03/15 11:19:48;;;;;;;30.52;18.33;;;;;;;13.12;29.14;102277.03;5030605;28;20037;-76
2022/03/15 11:22:16;;;;;;;34.92;18.38;;;;;;;13.45;28.29;102275.06;5031018;28;20477;-74
2022/03/15 11:25:04;;;;;;;36.83;19.08;;;;;;;13.03;29.21;102270.72;5015210;28;20038;-75
2022/03/15 11:27:32;;;;;;;31.17;14.80;;;;;;;13.20;27.71;102267.50;5022943;28;20547;-75
2022/03/15 11:30:02;;;;;;;23.63;15.00;;;;;;;13.17;28.19;102255.16;5023197;28;20029;-75
2022/03/15 11:32:33;;;;;;;23.05;14.48;;;;;;;13.73;28.92;102257.97;5022264;28;20041;-77
2022/03/15 11:34:59;;;;;;;19.50;13.90;;;;;;;13.42;28.25;102238.09;5016713;28;20037;-74
2022/03/15 11:37:25;;;;;;;21.05;14.73;;;;;;;13.76;28.50;102238.66;5010659;28;20038;-75
2022/03/15 11:40:32;;;;;;;24.67;15.55;;;;;;;13.51;28.41;102237.38;5010822;28;20123;-76
2022/03/15 11:43:08;;;;;;;26.90;14.77;;;;;;;13.47;28.92;102228.50;5002304;28;20076;-75
2022/03/15 11:45:40;;;;;;;25.65;14.98;;;;;;;13.51;29.22;102211.88;5024774;28;20054;-75
2022/03/15 11:48:13;;;;;;;29.77;15.07;;;;;;;13.70;28.22;102204.28;5025501;28;20083;-73
2022/03/15 11:50:51;;;;;;;18.65;12.60;;;;;;;13.66;28.48;102215.63;5005483;28;20517;-74
2022/03/15 11:53:44;;;;;;;18.58;12.77;;;;;;;13.43;27.88;102207.31;5008289;28;20061;-73
2022/03/15 11:56:27;;;;;;;19.50;14.20;;;;;;;13.39;27.97;102201.13;5010461;28;20068;-74
2022/03/15 11:58:55;;;;;;;;;;;;;;;13.52;28.68;102207.47;5011019;28;20097;-73
2022/03/15 12:01:22;;;;;;;18.38;13.52;;;;;;;13.50;29.56;102194.25;5010625;28;19986;-76
2022/03/15 12:03:57;;;;;;;28.27;12.45;;;;;;;13.54;27.73;102194.34;5008504;28;20517;-74
2022/03/15 12:06:26;;;;;;;20.42;12.32;;;;;;;13.36;28.62;102190.50;5011006;28;20066;-75
2022/03/15 12:09:00;;;;;;;19.27;12.70;;;;;;;13.14;27.47;102191.84;5016691;28;20553;-74
2022/03/15 12:11:40;;;;;;;16.05;10.98;;;;;;;13.40;27.68;102191.47;5019612;28;20537;-73
2022/03/15 12:14:08;;;;;;;22.23;12.48;;;;;;;13.23;28.03;102184.13;5012332;28;20080;-73
2022/03/15 12:16:47;;;;;;;17.65;13.48;;;;;;;13.39;27.75;102187.94;5008516;28;20417;-74
2022/03/15 12:21:57;;;;;;;33.55;13.98;;;;;;;13.28;28.63;102165.78;5001022;28;20041;-73
2022/03/15 12:24:46;;;;;;;21.02;12.98;;;;;;;13.28;27.70;102169.28;5022594;28;20440;-73
2022/03/15 12:27:16;;;;;;;15.75;12.38;;;;;;;13.20;28.77;102143.63;5031732;28;20049;-73
2022/03/15 12:30:00;;;;;;;17.73;11.98;;;;;;;13.30;27.69;102149.13;5030634;28;20056;-73
2022/03/15 12:32:27;;;;;;;27.25;13.65;;;;;;;13.29;27.47;102146.44;5018948;28;20042;-73
2022/03/15 12:34:56;;;;;;;16.70;14.07;;;;;;;13.45;27.49;102137.91;5010759;28;20025;-74
2022/03/15 12:37:36;;;;;;;16.48;12.18;;;;;;;13.25;28.08;102147.22;5010408;28;20046;-72
2022/03/15 12:40:07;;;;;;;17.42;12.68;;;;;;;13.40;26.67;102131.69;4991033;28;20046;-73
2022/03/15 12:42:39;;;;;;;20.23;12.93;;;;;;;13.14;27.41;102128.59;4991250;28;20062;-79
2022/03/15 12:45:10;;;;;;;17.30;13.10;;;;;;;13.42;27.81;102127.34;4991258;28;20474;-73
2022/03/15 12:47:41;;;;;;;17.42;12.35;;;;;;;13.53;27.06;102124.84;4995273;28;20092;-73
2022/03/15 12:50:09;;;;;;;18.92;13.82;;;;;;;13.26;27.01;102118.25;5008635;28;20030;-73
2022/03/15 12:53:12;;;;;;;24.45;13.98;;;;;;;13.45;27.79;102118.59;5010659;28;20428;-74
2022/03/15 12:55:41;;;;;;;19.50;13.55;;;;;;;13.01;26.19;102124.84;4988553;28;20398;-73
2022/03/15 12:58:09;;;;;;;18.75;12.43;;;;;;;13.07;26.52;102117.06;4990904;28;20050;-74
2022/03/15 13:00:41;;;;;;;25.95;13.70;;;;;;;13.03;26.53;102109.06;5007700;28;20084;-74
2022/03/15 13:03:09;;;;;;;18.40;12.75;;;;;;;12.99;25.54;102107.25;5001397;28;20045;-73
2022/03/15 13:05:38;;;;;;;18.08;11.90;;;;;;;13.01;25.40;102106.41;5015308;28;20052;-74